createdAt,value
2022-08-05T00:01:36.196Z,100815.09
2022-08-05T00:04:18.553Z,100994.00
2022-08-05T00:06:47.279Z,100940.84
2022-08-05T00:09:19.586Z,101001.44
2022-08-05T00:11:49.383Z,100946.50
2022-08-05T00:14:28.915Z,100898.53
2022-08-05T00:16:58.223Z,100984.03
2022-08-05T00:19:33.216Z,100798.34
2022-08-05T00:22:01.359Z,100991.09
2022-08-05T00:24:30.658Z,100981.25
2022-08-05T00:26:59.317Z,100890.50
2022-08-05T00:29:27.460Z,100977.09
2022-08-05T00:32:13.109Z,100971.25
2022-08-05T00:35:04.280Z,100920.03
2022-08-05T00:37:35.454Z,100984.63
2022-08-05T00:40:28.363Z,100967.44
2022-08-05T00:42:58.106Z,100905.66
2022-08-05T00:45:37.971Z,100957.25
2022-08-05T00:48:07.002Z,100963.28
2022-08-05T00:50:34.598Z,100957.66
2022-08-05T00:53:02.550Z,100972.78
2022-08-05T00:55:42.130Z,100998.25
2022-08-05T00:58:13.555Z,100984.50
2022-08-05T01:00:41.043Z,100969.59
2022-08-05T01:03:12.696Z,100977.63
2022-08-05T01:05:50.435Z,100820.63
2022-08-05T01:08:40.332Z,100861.66
2022-08-05T01:11:33.884Z,100988.56
2022-08-05T01:14:10.034Z,100930.03
2022-08-05T01:16:49.206Z,100932.25
2022-08-05T01:19:30.201Z,100989.44
2022-08-05T01:22:31.870Z,100809.94
2022-08-05T01:25:04.614Z,100987.72
2022-08-05T01:27:55.549Z,100925.81
2022-08-05T01:30:34.692Z,100985.56
2022-08-05T01:33:06.280Z,100948.31
2022-08-05T01:35:51.919Z,100982.59
2022-08-05T01:38:24.694Z,100979.84
2022-08-05T01:40:57.137Z,100984.81
2022-08-05T01:43:24.630Z,100950.63
2022-08-05T01:45:56.101Z,100937.22
2022-08-05T01:48:26.420Z,100952.69
2022-08-05T01:50:55.277Z,100823.00
2022-08-05T01:53:42.203Z,100898.56
2022-08-05T01:58:09.313Z,100972.41
2022-08-05T01:59:03.610Z,100967.44
2022-08-05T02:01:40.106Z,100962.97
2022-08-05T02:04:09.368Z,100960.16
2022-08-05T02:06:38.959Z,100967.38
2022-08-05T02:09:07.449Z,100949.66
2022-08-05T02:11:52.572Z,100968.19
2022-08-05T02:14:29.223Z,100913.53
2022-08-05T02:17:05.376Z,100959.91
2022-08-05T02:19:41.400Z,100961.47
2022-08-05T02:22:26.528Z,100898.53
2022-08-05T02:25:02.598Z,100804.75
2022-08-05T02:27:58.532Z,100928.22
2022-08-05T02:30:20.223Z,100963.78
2022-08-05T02:32:51.700Z,100855.66
2022-08-05T02:35:27.723Z,100949.22
2022-08-05T02:37:56.786Z,100777.81
2022-08-05T02:40:27.626Z,100954.88
2022-08-05T02:42:56.475Z,100945.03
2022-08-05T02:45:25.331Z,100928.16
2022-08-05T02:48:07.609Z,100924.00
2022-08-05T02:50:44.029Z,100947.34
2022-08-05T02:53:18.928Z,100931.28
2022-08-05T02:55:59.667Z,100934.94
2022-08-05T02:58:30.089Z,100945.38
2022-08-05T03:01:01.970Z,100939.34
2022-08-05T03:03:33.703Z,100722.75
2022-08-05T03:06:56.736Z,100859.38
2022-08-05T03:09:05.204Z,100765.59
2022-08-05T03:11:54.642Z,100842.56
2022-08-05T03:14:21.542Z,100945.94
2022-08-05T03:16:48.449Z,100724.66
2022-08-05T03:19:33.056Z,100949.97
2022-08-05T03:22:01.480Z,100944.44
2022-08-05T03:24:30.826Z,100866.25
2022-08-05T03:27:00.052Z,100946.34
2022-08-05T03:29:45.301Z,100939.72
2022-08-05T03:32:15.533Z,100921.50
2022-08-05T03:34:51.178Z,100763.09
2022-08-05T03:37:23.704Z,100899.97
2022-08-05T03:39:59.160Z,100950.63
2022-08-05T03:42:28.882Z,100909.25
2022-08-05T03:44:55.849Z,100949.72
2022-08-05T03:47:24.392Z,100940.94
2022-08-05T03:49:52.620Z,100839.06
2022-08-05T03:52:39.330Z,100819.56
2022-08-05T03:56:06.120Z,100832.78
2022-08-05T03:58:12.720Z,100868.75
2022-08-05T04:00:42.106Z,100847.13
2022-08-05T04:03:28.237Z,100952.69
2022-08-05T04:05:59.085Z,100870.94
2022-08-05T04:08:35.340Z,100949.28
2022-08-05T04:11:05.246Z,100827.78
2022-08-05T04:13:50.909Z,100887.22
2022-08-05T04:16:24.338Z,100761.44
2022-08-05T04:18:54.042Z,100872.59
2022-08-05T04:22:10.401Z,100777.78
2022-08-05T04:24:09.023Z,100957.38
2022-08-05T04:26:36.020Z,100954.16
2022-08-05T04:29:07.278Z,100965.25
2022-08-05T04:31:38.473Z,100989.59
2022-08-05T04:34:31.402Z,100987.81
2022-08-05T04:36:52.148Z,100819.69
2022-08-05T04:39:19.975Z,100829.63
2022-08-05T04:41:48.253Z,100957.75
2022-08-05T04:44:15.145Z,100899.94
2022-08-05T04:46:48.549Z,100978.59
2022-08-05T04:49:15.642Z,100872.81
2022-08-05T04:51:45.339Z,100910.84
2022-08-05T04:54:12.432Z,100935.97
2022-08-05T04:56:39.635Z,100911.06
2022-08-05T04:59:21.680Z,100994.59
2022-08-05T05:02:07.590Z,100982.75
2022-08-05T05:04:38.316Z,100953.03
2022-08-05T05:07:10.690Z,100976.78
2022-08-05T05:09:38.036Z,100987.91
2022-08-05T05:12:06.144Z,100974.88
2022-08-05T05:14:33.078Z,100982.31
2022-08-05T05:17:03.728Z,100940.38
2022-08-05T05:19:37.006Z,100946.31
2022-08-05T05:22:24.646Z,100852.19
2022-08-05T05:24:59.890Z,100976.50
2022-08-05T05:27:41.372Z,100979.97
2022-08-05T05:30:15.373Z,100941.84
2022-08-05T05:32:55.460Z,100962.31
2022-08-05T05:35:23.110Z,100962.41
2022-08-05T05:38:00.348Z,100983.97
2022-08-05T05:40:29.526Z,100980.78
2022-08-05T05:42:57.364Z,100902.97
2022-08-05T05:45:24.737Z,100950.06
2022-08-05T05:48:06.679Z,100769.59
2022-08-05T05:50:41.074Z,100937.03
2022-08-05T05:53:21.424Z,100959.22
2022-08-05T05:55:51.507Z,100882.53
2022-08-05T05:58:30.203Z,100956.75
2022-08-05T06:01:02.440Z,100973.34
2022-08-05T06:04:00.971Z,100903.69
2022-08-05T06:06:28.106Z,100976.88
2022-08-05T06:08:58.424Z,100980.28
2022-08-05T06:11:25.280Z,100920.47
2022-08-05T06:13:54.113Z,100967.16
2022-08-05T06:16:30.901Z,100970.50
2022-08-05T06:19:01.982Z,100939.59
2022-08-05T06:21:37.237Z,100988.06
2022-08-05T06:24:12.133Z,100989.63
2022-08-05T06:26:51.256Z,100990.78
2022-08-05T06:29:25.248Z,100991.09
2022-08-05T06:32:17.286Z,100918.75
2022-08-05T06:34:53.585Z,100922.06
2022-08-05T06:37:56.424Z,100930.44
2022-08-05T06:40:11.049Z,100997.38
2022-08-05T06:42:39.754Z,100998.34
2022-08-05T06:45:08.705Z,100939.50
2022-08-05T06:48:36.902Z,100993.00
2022-08-05T06:50:22.772Z,100985.81
2022-08-05T06:52:58.706Z,100999.59
2022-08-05T06:55:30.412Z,100890.72
2022-08-05T06:58:20.212Z,100995.06
2022-08-05T07:00:50.228Z,100992.66
2022-08-05T07:03:17.511Z,101010.25
2022-08-05T07:05:47.770Z,100963.56
2022-08-05T07:08:16.380Z,100960.44
2022-08-05T07:10:52.909Z,100942.19
2022-08-05T07:13:57.786Z,100989.78
2022-08-05T07:18:00.303Z,101000.31
2022-08-05T07:20:31.336Z,100991.25
2022-08-05T07:22:28.832Z,100989.81
2022-08-05T07:25:23.686Z,100974.16
2022-08-05T07:27:57.770Z,100988.94
2022-08-05T07:30:33.947Z,101002.75
2022-08-05T07:33:05.328Z,100928.72
2022-08-05T07:36:04.134Z,100992.69
2022-08-05T07:38:32.969Z,100964.41
2022-08-05T07:42:07.277Z,100990.34
2022-08-05T07:43:58.463Z,100985.69
2022-08-05T07:46:31.053Z,100957.84
2022-08-05T07:49:02.311Z,100997.03
2022-08-05T07:51:40.835Z,100998.19
2022-08-05T07:54:22.037Z,100851.19
2022-08-05T07:57:02.057Z,100971.03
2022-08-05T07:59:40.940Z,100996.38
2022-08-05T08:02:16.694Z,100993.38
2022-08-05T08:04:50.434Z,100906.44
2022-08-05T08:07:22.388Z,100921.34
2022-08-05T08:09:52.386Z,100999.06
2022-08-05T08:12:36.848Z,100990.56
2022-08-05T08:15:15.804Z,100944.09
2022-08-05T08:17:49.629Z,100963.03
2022-08-05T08:20:43.944Z,100989.22
2022-08-05T08:23:07.652Z,100977.13
2022-08-05T08:26:00.578Z,100961.69
2022-08-05T08:28:36.482Z,100987.34
2022-08-05T08:31:04.500Z,100980.25
2022-08-05T08:33:36.060Z,100965.66
2022-08-05T08:36:29.431Z,100986.03
2022-08-05T08:38:55.368Z,100982.22
2022-08-05T08:41:26.255Z,100991.03
2022-08-05T08:45:19.669Z,100784.59
2022-08-05T08:46:58.220Z,100959.44
2022-08-05T08:50:14.490Z,100891.03
2022-08-05T08:52:19.804Z,100958.13
2022-08-05T08:54:48.025Z,100856.16
2022-08-05T08:57:14.910Z,100850.66
2022-08-05T08:59:47.416Z,100970.72
2022-08-05T09:02:19.182Z,100877.03
2022-08-05T09:04:58.467Z,100969.91
2022-08-05T09:07:39.810Z,100903.38
2022-08-05T09:10:21.800Z,100930.56
2022-08-05T09:12:54.870Z,100887.97
2022-08-05T09:15:23.416Z,100917.03
2022-08-05T09:17:52.894Z,100969.75
2022-08-05T09:20:36.552Z,100932.63
2022-08-05T09:23:19.666Z,100971.03
2022-08-05T09:26:06.496Z,100964.31
2022-08-05T09:28:37.787Z,100960.34
2022-08-05T09:31:43.508Z,100960.69
2022-08-05T09:33:55.111Z,100937.19
2022-08-05T09:36:27.729Z,100905.25
2022-08-05T09:39:18.012Z,100953.00
2022-08-05T09:42:03.808Z,100927.56
2022-08-05T09:44:50.478Z,100961.53
2022-08-05T09:47:20.561Z,100951.53
2022-08-05T09:50:00.609Z,100949.19
2022-08-05T09:52:34.544Z,100954.53
2022-08-05T09:55:57.213Z,100948.31
2022-08-05T09:57:58.713Z,100949.22
2022-08-05T10:00:27.644Z,100917.66
2022-08-05T10:02:57.985Z,100765.91
2022-08-05T10:05:28.088Z,100843.44
2022-08-05T10:08:35.947Z,100924.81
2022-08-05T10:10:53.964Z,100913.31
2022-08-05T10:13:27.529Z,100917.50
2022-08-05T10:16:37.770Z,100918.75
2022-08-05T10:19:10.067Z,100885.97
2022-08-05T10:21:40.228Z,100878.25
2022-08-05T10:24:13.491Z,100911.81
2022-08-05T10:26:51.517Z,100919.22
2022-08-05T10:29:23.594Z,100903.22
2022-08-05T10:32:52.563Z,100914.91
2022-08-05T10:34:37.458Z,100882.44
2022-08-05T10:37:08.282Z,100892.75
2022-08-05T10:39:59.180Z,100881.47
2022-08-05T10:42:34.353Z,100874.72
2022-08-05T10:45:02.030Z,100898.47
2022-08-05T10:48:29.397Z,100895.41
2022-08-05T10:51:03.387Z,100900.88
2022-08-05T10:53:38.223Z,100891.84
2022-08-05T10:56:21.607Z,100805.69
2022-08-05T10:58:55.024Z,100893.16
2022-08-05T11:01:54.647Z,100873.84
2022-08-05T11:04:27.860Z,100876.31
2022-08-05T11:06:57.711Z,100883.09
2022-08-05T11:09:39.066Z,100830.31
2022-08-05T11:12:55.024Z,100878.50
2022-08-05T11:16:00.236Z,100843.19
2022-08-05T11:18:34.091Z,100880.84
2022-08-05T11:21:11.322Z,100884.66
2022-08-05T11:24:04.503Z,100880.41
2022-08-05T11:26:32.932Z,100872.41
2022-08-05T11:29:11.798Z,100879.44
2022-08-05T11:31:54.356Z,100877.00
2022-08-05T11:34:39.958Z,100876.69
2022-08-05T11:38:30.852Z,100873.06
2022-08-05T11:41:00.625Z,100886.97
2022-08-05T11:44:00.722Z,100865.00
2022-08-05T11:46:32.252Z,100822.38
2022-08-05T11:49:00.666Z,100839.75
2022-08-05T11:51:43.545Z,100840.53
2022-08-05T11:54:13.893Z,100728.00
2022-08-05T11:56:50.260Z,100845.28
2022-08-05T11:59:26.603Z,100831.28
2022-08-05T12:02:01.752Z,100855.94
2022-08-05T12:04:37.610Z,100844.38
2022-08-05T12:07:11.978Z,100866.09
2022-08-05T12:09:53.559Z,100749.63
2022-08-05T12:12:25.781Z,100857.53
2022-08-05T12:14:52.604Z,100780.00
2022-08-05T12:18:04.310Z,100857.91
2022-08-05T12:20:25.340Z,100830.25
2022-08-05T12:23:09.559Z,100849.88
2022-08-05T12:25:56.455Z,100835.72
2022-08-05T12:28:34.011Z,100852.84
2022-08-05T12:31:01.948Z,100812.75
2022-08-05T12:33:37.023Z,100838.81
2022-08-05T12:36:09.449Z,100837.66
2022-08-05T12:38:40.358Z,100839.41
2022-08-05T12:41:17.216Z,100828.09
2022-08-05T12:44:04.847Z,100833.44
2022-08-05T12:46:33.626Z,100791.81
2022-08-05T12:49:13.151Z,100773.06
2022-08-05T12:52:13.480Z,100830.34
2022-08-05T12:54:49.801Z,100669.72
2022-08-05T12:57:17.821Z,100820.59
2022-08-05T13:02:04.440Z,100783.47
2022-08-05T13:02:39.941Z,100820.25
2022-08-05T13:05:07.508Z,100656.09
2022-08-05T13:07:59.253Z,100818.06
2022-08-05T13:10:24.885Z,100807.41
2022-08-05T13:12:58.241Z,100785.38
2022-08-05T13:15:41.957Z,100809.38
2022-08-05T13:18:19.526Z,100746.88
2022-08-05T13:20:47.130Z,100801.22
2022-08-05T13:23:13.756Z,100736.28
2022-08-05T13:25:51.982Z,100773.50
2022-08-05T13:28:25.817Z,100770.59
2022-08-05T13:30:53.191Z,100767.88
2022-08-05T13:34:21.833Z,100763.81
2022-08-05T13:36:10.261Z,100755.28
2022-08-05T13:38:38.389Z,100777.69
2022-08-05T13:41:09.807Z,100734.78
2022-08-05T13:43:44.988Z,100786.00
2022-08-05T13:46:37.956Z,100788.69
2022-08-05T13:49:10.420Z,100775.53
2022-08-05T13:51:41.268Z,100752.16
2022-08-05T13:54:15.177Z,100766.41
2022-08-05T13:56:51.605Z,100671.34
2022-08-05T13:59:24.825Z,100727.31
2022-08-05T14:01:59.096Z,100751.97
2022-08-05T14:04:51.859Z,100743.34
2022-08-05T14:07:59.894Z,100753.59
2022-08-05T14:10:28.991Z,100669.41
2022-08-05T14:12:58.889Z,100748.81
2022-08-05T14:16:07.635Z,100639.03
2022-08-05T14:18:18.652Z,100647.59
2022-08-05T14:20:54.546Z,100730.41
2022-08-05T14:23:25.134Z,100647.13
2022-08-05T14:25:58.578Z,100636.47
2022-08-05T14:28:29.623Z,100737.63
2022-08-05T14:30:58.312Z,100648.78
2022-08-05T14:33:25.450Z,100581.09
2022-08-05T14:35:54.487Z,100629.22
2022-08-05T14:38:32.168Z,100522.44
2022-08-05T14:41:00.369Z,100720.78
2022-08-05T14:43:59.107Z,100645.41
2022-08-05T14:46:13.857Z,100722.97
2022-08-05T14:48:40.780Z,100546.09
2022-08-05T14:51:08.366Z,100714.38
2022-08-05T14:53:44.377Z,100572.88
2022-08-05T14:56:11.854Z,100552.31
2022-08-05T14:58:47.756Z,100639.94
2022-08-05T15:01:24.336Z,100708.84
2022-08-05T15:04:11.532Z,100673.72
2022-08-05T15:06:38.824Z,100675.69
2022-08-05T15:09:07.305Z,100614.03
2022-08-05T15:11:51.540Z,100677.31
2022-08-05T15:14:35.551Z,100619.75
2022-08-05T15:17:09.907Z,100625.56
2022-08-05T15:19:55.022Z,100689.44
2022-08-05T15:22:22.145Z,100677.34
2022-08-05T15:24:54.297Z,100617.72
2022-08-05T15:27:20.973Z,100591.81
2022-08-05T15:29:47.631Z,100552.47
2022-08-05T15:32:16.412Z,100677.34
2022-08-05T15:34:43.361Z,100660.38
2022-08-05T15:37:14.717Z,100654.66
2022-08-05T15:41:02.072Z,100482.41
2022-08-05T15:42:56.868Z,100487.81
2022-08-05T15:45:18.673Z,100663.00
2022-08-05T15:47:49.829Z,100564.53
2022-08-05T15:50:21.080Z,100597.47
2022-08-05T15:52:55.020Z,100650.38
2022-08-05T15:55:24.608Z,100633.75
2022-08-05T15:57:52.258Z,100466.72
2022-08-05T16:00:26.502Z,100645.81
2022-08-05T16:03:07.586Z,100499.66
2022-08-05T16:05:34.379Z,100492.53
2022-08-05T16:08:05.922Z,100543.47
2022-08-05T16:10:32.791Z,100621.31
2022-08-05T16:12:59.437Z,100640.41
2022-08-05T16:15:32.652Z,100575.59
2022-08-05T16:18:00.742Z,100527.94
2022-08-05T16:20:31.197Z,100637.66
2022-08-05T16:22:59.198Z,100474.88
2022-08-05T16:25:32.338Z,100542.59
2022-08-05T16:28:06.498Z,100456.84
2022-08-05T16:30:36.659Z,100579.31
2022-08-05T16:33:03.506Z,100520.19
2022-08-05T16:35:33.530Z,100486.16
2022-08-05T16:38:18.331Z,100640.00
2022-08-05T16:41:00.500Z,100441.38
2022-08-05T16:43:33.685Z,100522.38
2022-08-05T16:46:07.434Z,100584.34
2022-08-05T16:48:48.979Z,100625.91
2022-08-05T16:51:16.296Z,100647.75
2022-08-05T16:54:05.178Z,100627.94
2022-08-05T16:56:33.671Z,100643.44
2022-08-05T16:59:07.692Z,100641.13
2022-08-05T17:01:52.778Z,100574.28
2022-08-05T17:04:21.341Z,100590.22
2022-08-05T17:06:53.413Z,100652.13
2022-08-05T17:09:20.654Z,100646.22
2022-08-05T17:11:50.838Z,100629.84
2022-08-05T17:14:34.164Z,100638.00
2022-08-05T17:17:15.003Z,100667.78
2022-08-05T17:19:47.062Z,100594.41
2022-08-05T17:22:25.595Z,100659.47
2022-08-05T17:24:58.058Z,100627.16
2022-08-05T17:27:27.148Z,100655.22
2022-08-05T17:30:00.836Z,100659.13
2022-08-05T17:32:29.624Z,100662.84
2022-08-05T17:34:58.174Z,100605.38
2022-08-05T17:37:39.508Z,100680.88
2022-08-05T17:40:17.467Z,100664.06
2022-08-05T17:42:51.905Z,100684.75
2022-08-05T17:45:22.437Z,100669.34
2022-08-05T17:47:55.081Z,100683.78
2022-08-05T17:50:30.031Z,100697.69
2022-08-05T17:53:02.373Z,100687.72
2022-08-05T17:55:37.639Z,100679.81
2022-08-05T17:58:10.927Z,100631.91
2022-08-05T18:00:45.236Z,100689.13
2022-08-05T18:03:39.165Z,100697.13
2022-08-05T18:06:05.910Z,100687.91
2022-08-05T18:08:38.365Z,100661.66
2022-08-05T18:11:07.357Z,100679.16
2022-08-05T18:13:36.848Z,100667.38
2022-08-05T18:16:13.641Z,100624.34
2022-08-05T18:18:41.509Z,100611.56
2022-08-05T18:21:19.980Z,100666.69
2022-08-05T18:23:49.631Z,100710.06
2022-08-05T18:26:29.322Z,100700.50
2022-08-05T18:28:58.746Z,100662.56
2022-08-05T18:31:25.588Z,100704.00
2022-08-05T18:33:59.782Z,100711.19
2022-08-05T18:36:29.826Z,100742.38
2022-08-05T18:38:56.830Z,100591.75
2022-08-05T18:41:54.956Z,100670.25
2022-08-05T18:44:11.363Z,100718.22
2022-08-05T18:46:41.284Z,100725.00
2022-08-05T18:49:30.543Z,100747.59
2022-08-05T18:52:32.852Z,100747.69
2022-08-05T18:55:00.342Z,100758.94
2022-08-05T18:57:26.924Z,100758.38
2022-08-05T19:00:20.004Z,100767.22
2022-08-05T19:02:47.958Z,100746.59
2022-08-05T19:06:11.890Z,100686.34
2022-08-05T19:08:02.828Z,100779.75
2022-08-05T19:10:30.465Z,100778.16
2022-08-05T19:12:57.379Z,100733.03
2022-08-05T19:15:58.350Z,100740.97
2022-08-05T19:18:21.052Z,100786.44
2022-08-05T19:20:53.702Z,100732.66
2022-08-05T19:24:03.940Z,100775.78
2022-08-05T19:26:09.347Z,100797.19
2022-08-05T19:28:42.350Z,100815.78
2022-08-05T19:31:13.230Z,100795.53
2022-08-05T19:33:40.624Z,100757.22
2022-08-05T19:36:16.884Z,100770.25
2022-08-05T19:38:45.104Z,100771.31
2022-08-05T19:41:11.944Z,100805.06
2022-08-05T19:44:06.101Z,100805.06
2022-08-05T19:46:29.269Z,100782.97
2022-08-05T19:48:57.532Z,100795.88
2022-08-05T19:51:56.386Z,100810.72
2022-08-05T19:54:27.209Z,100798.19
2022-08-05T19:56:58.322Z,100802.28
2022-08-05T20:00:00.210Z,100811.31
2022-08-05T20:02:12.807Z,100795.94
2022-08-05T20:04:42.976Z,100805.63
2022-08-05T20:07:13.633Z,100770.28
2022-08-05T20:09:54.709Z,100790.06
2022-08-05T20:12:24.794Z,100760.78
2022-08-05T20:14:52.984Z,100807.13
2022-08-05T20:17:23.550Z,100789.91
2022-08-05T20:19:56.567Z,100810.44
2022-08-05T20:22:25.021Z,100831.41
2022-08-05T20:24:54.315Z,100682.25
2022-08-05T20:27:21.182Z,100834.50
2022-08-05T20:29:58.263Z,100803.50
2022-08-05T20:32:27.308Z,100784.00
2022-08-05T20:34:54.889Z,100823.84
2022-08-05T20:38:04.595Z,100828.84
2022-08-05T20:40:09.141Z,100793.72
2022-08-05T20:42:35.917Z,100826.91
2022-08-05T20:45:03.082Z,100828.84
2022-08-05T20:47:32.198Z,100819.47
2022-08-05T20:49:59.736Z,100825.53
2022-08-05T20:52:29.293Z,100829.44
2022-08-05T20:55:54.197Z,100799.25
2022-08-05T20:57:44.694Z,100811.91
2022-08-05T21:00:41.086Z,100830.00
2022-08-05T21:03:06.273Z,100837.97
2022-08-05T21:05:48.413Z,100800.94
2022-08-05T21:08:26.830Z,100830.56
2022-08-05T21:11:10.315Z,100827.81
2022-08-05T21:13:48.165Z,100829.75
2022-08-05T21:16:29.997Z,100818.75
2022-08-05T21:19:01.334Z,100819.31
2022-08-05T21:21:44.194Z,100789.41
2022-08-05T21:24:17.214Z,100785.00
2022-08-05T21:26:53.480Z,100819.59
2022-08-05T21:29:26.476Z,100810.81
2022-08-05T21:31:58.419Z,100821.56
2022-08-05T21:34:24.972Z,100805.34
2022-08-05T21:36:51.671Z,100798.19
2022-08-05T21:39:26.577Z,100806.44
2022-08-05T21:42:01.660Z,100796.03
2022-08-05T21:44:30.249Z,100813.59
2022-08-05T21:46:59.437Z,100789.44
2022-08-05T21:49:59.295Z,100820.75
2022-08-05T21:52:16.292Z,100824.00
2022-08-05T21:54:51.876Z,100808.13
2022-08-05T21:57:31.228Z,100791.88
2022-08-05T22:00:06.031Z,100838.03
2022-08-05T22:02:33.948Z,100832.28
2022-08-05T22:05:00.793Z,100810.28
2022-08-05T22:07:39.740Z,100798.75
2022-08-05T22:10:16.878Z,100734.44
2022-08-05T22:12:44.783Z,100832.75
2022-08-05T22:15:16.823Z,100798.97
2022-08-05T22:18:03.657Z,100818.19
2022-08-05T22:20:30.369Z,100798.94
2022-08-05T22:23:21.358Z,100835.47
2022-08-05T22:26:10.306Z,100810.69
2022-08-05T22:28:41.190Z,100832.16
2022-08-05T22:31:07.834Z,100824.97
2022-08-05T22:33:56.824Z,100816.94
2022-08-05T22:36:25.119Z,100854.09
2022-08-05T22:38:52.156Z,100846.06
2022-08-05T22:42:05.373Z,100841.13
2022-08-05T22:44:08.942Z,100684.19
2022-08-05T22:46:39.974Z,100822.75
2022-08-05T22:50:17.072Z,100850.19
2022-08-05T22:52:06.135Z,100841.94
2022-08-05T22:54:35.472Z,100859.22
2022-08-05T22:57:02.883Z,100811.69
2022-08-05T22:59:53.540Z,100789.22
2022-08-05T23:02:29.281Z,100653.94
2022-08-05T23:04:58.381Z,100826.31
2022-08-05T23:07:29.131Z,100820.00
2022-08-05T23:10:01.439Z,100843.13
2022-08-05T23:12:32.816Z,100848.56
2022-08-05T23:15:01.392Z,100851.31
2022-08-05T23:17:34.125Z,100826.56
2022-08-05T23:20:10.109Z,100817.75
2022-08-05T23:22:37.124Z,100812.03
2022-08-05T23:25:04.422Z,100839.47
2022-08-05T23:27:42.542Z,100798.50
2022-08-05T23:30:21.381Z,100801.25
2022-08-05T23:32:53.967Z,100735.59
2022-08-05T23:35:20.725Z,100805.72
2022-08-05T23:37:48.091Z,100838.13
2022-08-05T23:40:14.867Z,100768.31
2022-08-05T23:42:41.759Z,100794.41
2022-08-05T23:45:15.765Z,100790.00
2022-08-05T23:47:48.277Z,100769.28
2022-08-05T23:50:15.415Z,100834.47
2022-08-05T23:52:49.963Z,100793.44
2022-08-05T23:55:18.747Z,100830.28
2022-08-05T23:57:49.019Z,100780.47
